sensor_id;sensor_type;location;lat;lon;timestamp;P1;durP1;ratioP1;P2;durP2;ratioP2
239;SDS011;104;53.590;10.004;2022-10-16T00:01:47;17.33;;;11.70;;
239;SDS011;104;53.590;10.004;2022-10-16T00:04:15;22.07;;;11.73;;
239;SDS011;104;53.590;10.004;2022-10-16T00:06:42;19.43;;;12.93;;
239;SDS011;104;53.590;10.004;2022-10-16T00:09:10;24.93;;;13.50;;
239;SDS011;104;53.590;10.004;2022-10-16T00:11:38;15.60;;;12.00;;
239;SDS011;104;53.590;10.004;2022-10-16T00:14:06;16.33;;;12.10;;
239;SDS011;104;53.590;10.004;2022-10-16T00:16:34;21.80;;;11.90;;
239;SDS011;104;53.590;10.004;2022-10-16T00:19:03;21.83;;;11.97;;
239;SDS011;104;53.590;10.004;2022-10-16T00:21:30;23.20;;;11.80;;
239;SDS011;104;53.590;10.004;2022-10-16T00:23:58;15.03;;;11.00;;
239;SDS011;104;53.590;10.004;2022-10-16T00:26:26;16.47;;;11.40;;
239;SDS011;104;53.590;10.004;2022-10-16T00:28:54;16.00;;;10.70;;
239;SDS011;104;53.590;10.004;2022-10-16T00:31:23;17.37;;;10.97;;
239;SDS011;104;53.590;10.004;2022-10-16T00:33:51;14.23;;;11.03;;
239;SDS011;104;53.590;10.004;2022-10-16T00:36:20;24.77;;;12.23;;
239;SDS011;104;53.590;10.004;2022-10-16T00:38:49;17.17;;;11.90;;
239;SDS011;104;53.590;10.004;2022-10-16T00:41:20;16.63;;;11.70;;
239;SDS011;104;53.590;10.004;2022-10-16T00:43:49;17.83;;;12.37;;
239;SDS011;104;53.590;10.004;2022-10-16T00:46:17;15.20;;;10.93;;
239;SDS011;104;53.590;10.004;2022-10-16T00:48:48;15.60;;;10.20;;
239;SDS011;104;53.590;10.004;2022-10-16T00:51:17;14.70;;;10.30;;
239;SDS011;104;53.590;10.004;2022-10-16T00:53:47;13.17;;;10.07;;
239;SDS011;104;53.590;10.004;2022-10-16T00:56:15;21.20;;;10.13;;
239;SDS011;104;53.590;10.004;2022-10-16T00:58:43;16.23;;;9.83;;
239;SDS011;104;53.590;10.004;2022-10-16T01:01:10;12.70;;;10.00;;
239;SDS011;104;53.590;10.004;2022-10-16T01:03:38;16.83;;;9.80;;
239;SDS011;104;53.590;10.004;2022-10-16T01:06:09;14.80;;;10.00;;
239;SDS011;104;53.590;10.004;2022-10-16T01:08:44;15.70;;;10.07;;
239;SDS011;104;53.590;10.004;2022-10-16T01:11:15;13.93;;;9.77;;
239;SDS011;104;53.590;10.004;2022-10-16T01:13:46;21.30;;;10.73;;
239;SDS011;104;53.590;10.004;2022-10-16T01:16:15;10.43;;;8.30;;
239;SDS011;104;53.590;10.004;2022-10-16T01:18:47;16.00;;;10.30;;
239;SDS011;104;53.590;10.004;2022-10-16T01:21:20;12.00;;;9.03;;
239;SDS011;104;53.590;10.004;2022-10-16T01:23:51;21.73;;;9.67;;
239;SDS011;104;53.590;10.004;2022-10-16T01:26:31;12.40;;;9.37;;
239;SDS011;104;53.590;10.004;2022-10-16T01:29:02;17.10;;;9.20;;
239;SDS011;104;53.590;10.004;2022-10-16T01:31:31;12.00;;;9.27;;
239;SDS011;104;53.590;10.004;2022-10-16T01:34:02;14.30;;;9.37;;
239;SDS011;104;53.590;10.004;2022-10-16T01:36:33;20.77;;;10.10;;
239;SDS011;104;53.590;10.004;2022-10-16T01:39:02;17.93;;;10.07;;
239;SDS011;104;53.590;10.004;2022-10-16T01:41:30;15.67;;;10.60;;
239;SDS011;104;53.590;10.004;2022-10-16T01:44:01;16.53;;;10.50;;
239;SDS011;104;53.590;10.004;2022-10-16T01:46:29;17.03;;;10.10;;
239;SDS011;104;53.590;10.004;2022-10-16T01:48:57;18.13;;;10.70;;
239;SDS011;104;53.590;10.004;2022-10-16T01:51:26;22.80;;;10.70;;
239;SDS011;104;53.590;10.004;2022-10-16T01:53:55;16.20;;;10.00;;
239;SDS011;104;53.590;10.004;2022-10-16T01:56:24;23.20;;;16.27;;
239;SDS011;104;53.590;10.004;2022-10-16T01:58:52;18.13;;;13.83;;
239;SDS011;104;53.590;10.004;2022-10-16T02:01:24;14.30;;;10.57;;
239;SDS011;104;53.590;10.004;2022-10-16T02:03:53;20.60;;;10.37;;
239;SDS011;104;53.590;10.004;2022-10-16T02:06:21;17.43;;;10.50;;
239;SDS011;104;53.590;10.004;2022-10-16T02:08:50;17.27;;;10.80;;
239;SDS011;104;53.590;10.004;2022-10-16T02:11:17;16.83;;;10.90;;
239;SDS011;104;53.590;10.004;2022-10-16T02:13:45;15.90;;;10.43;;
239;SDS011;104;53.590;10.004;2022-10-16T02:16:13;25.83;;;10.60;;
239;SDS011;104;53.590;10.004;2022-10-16T02:18:43;18.10;;;11.30;;
239;SDS011;104;53.590;10.004;2022-10-16T02:21:11;16.30;;;9.90;;
239;SDS011;104;53.590;10.004;2022-10-16T02:23:42;14.90;;;10.17;;
239;SDS011;104;53.590;10.004;2022-10-16T02:26:12;19.93;;;11.37;;
239;SDS011;104;53.590;10.004;2022-10-16T02:28:42;18.10;;;11.13;;
239;SDS011;104;53.590;10.004;2022-10-16T02:31:11;16.27;;;10.10;;
239;SDS011;104;53.590;10.004;2022-10-16T02:33:40;16.67;;;11.40;;
239;SDS011;104;53.590;10.004;2022-10-16T02:36:10;14.30;;;10.57;;
239;SDS011;104;53.590;10.004;2022-10-16T02:38:38;18.23;;;11.27;;
239;SDS011;104;53.590;10.004;2022-10-16T02:41:06;14.40;;;10.03;;
239;SDS011;104;53.590;10.004;2022-10-16T02:43:34;18.03;;;10.97;;
239;SDS011;104;53.590;10.004;2022-10-16T02:46:01;14.97;;;9.87;;
239;SDS011;104;53.590;10.004;2022-10-16T02:48:28;22.77;;;11.70;;
239;SDS011;104;53.590;10.004;2022-10-16T02:50:56;13.03;;;9.70;;
239;SDS011;104;53.590;10.004;2022-10-16T02:53:24;15.00;;;10.43;;
239;SDS011;104;53.590;10.004;2022-10-16T02:55:52;16.67;;;10.30;;
239;SDS011;104;53.590;10.004;2022-10-16T02:58:19;15.10;;;9.80;;
239;SDS011;104;53.590;10.004;2022-10-16T03:00:46;22.27;;;10.50;;
239;SDS011;104;53.590;10.004;2022-10-16T03:03:14;15.83;;;10.77;;
239;SDS011;104;53.590;10.004;2022-10-16T03:05:42;13.27;;;10.07;;
239;SDS011;104;53.590;10.004;2022-10-16T03:08:11;12.50;;;9.70;;
239;SDS011;104;53.590;10.004;2022-10-16T03:10:40;15.83;;;9.30;;
239;SDS011;104;53.590;10.004;2022-10-16T03:13:07;14.53;;;9.27;;
239;SDS011;104;53.590;10.004;2022-10-16T03:15:34;11.93;;;9.27;;
239;SDS011;104;53.590;10.004;2022-10-16T03:18:02;15.63;;;10.00;;
239;SDS011;104;53.590;10.004;2022-10-16T03:20:29;11.53;;;9.43;;
239;SDS011;104;53.590;10.004;2022-10-16T03:22:56;12.70;;;9.50;;
239;SDS011;104;53.590;10.004;2022-10-16T03:25:24;17.40;;;11.93;;
239;SDS011;104;53.590;10.004;2022-10-16T03:27:53;12.87;;;9.27;;
239;SDS011;104;53.590;10.004;2022-10-16T03:30:20;19.07;;;9.33;;
239;SDS011;104;53.590;10.004;2022-10-16T03:32:47;12.03;;;9.07;;
239;SDS011;104;53.590;10.004;2022-10-16T03:35:18;14.47;;;9.67;;
239;SDS011;104;53.590;10.004;2022-10-16T03:37:46;20.03;;;9.40;;
239;SDS011;104;53.590;10.004;2022-10-16T03:40:13;14.23;;;10.10;;
239;SDS011;104;53.590;10.004;2022-10-16T03:42:41;12.70;;;8.80;;
239;SDS011;104;53.590;10.004;2022-10-16T03:45:11;16.73;;;8.83;;
239;SDS011;104;53.590;10.004;2022-10-16T03:47:38;18.07;;;9.37;;
239;SDS011;104;53.590;10.004;2022-10-16T03:50:06;14.90;;;8.80;;
239;SDS011;104;53.590;10.004;2022-10-16T03:52:34;14.93;;;8.67;;
239;SDS011;104;53.590;10.004;2022-10-16T03:55:01;11.33;;;9.30;;
239;SDS011;104;53.590;10.004;2022-10-16T03:57:28;13.60;;;8.90;;
239;SDS011;104;53.590;10.004;2022-10-16T03:59:56;13.77;;;8.83;;
239;SDS011;104;53.590;10.004;2022-10-16T04:02:24;16.30;;;8.90;;
239;SDS011;104;53.590;10.004;2022-10-16T04:04:52;18.67;;;10.40;;
239;SDS011;104;53.590;10.004;2022-10-16T04:07:19;11.90;;;8.40;;
239;SDS011;104;53.590;10.004;2022-10-16T04:09:47;13.77;;;10.10;;
239;SDS011;104;53.590;10.004;2022-10-16T04:12:17;17.43;;;9.70;;
239;SDS011;104;53.590;10.004;2022-10-16T04:14:44;18.53;;;8.47;;
239;SDS011;104;53.590;10.004;2022-10-16T04:17:11;15.30;;;9.53;;
239;SDS011;104;53.590;10.004;2022-10-16T04:19:40;17.70;;;10.33;;
239;SDS011;104;53.590;10.004;2022-10-16T04:22:07;17.00;;;10.53;;
239;SDS011;104;53.590;10.004;2022-10-16T04:24:34;12.50;;;9.63;;
239;SDS011;104;53.590;10.004;2022-10-16T04:27:02;13.30;;;9.30;;
239;SDS011;104;53.590;10.004;2022-10-16T04:29:29;17.30;;;10.20;;
239;SDS011;104;53.590;10.004;2022-10-16T04:31:56;13.23;;;9.60;;
239;SDS011;104;53.590;10.004;2022-10-16T04:34:24;16.33;;;10.07;;
239;SDS011;104;53.590;10.004;2022-10-16T04:36:52;22.37;;;9.77;;
239;SDS011;104;53.590;10.004;2022-10-16T04:39:20;15.70;;;10.20;;
239;SDS011;104;53.590;10.004;2022-10-16T04:41:47;13.43;;;9.30;;
239;SDS011;104;53.590;10.004;2022-10-16T04:44:14;13.37;;;9.83;;
239;SDS011;104;53.590;10.004;2022-10-16T04:46:41;21.53;;;11.10;;
239;SDS011;104;53.590;10.004;2022-10-16T04:49:09;16.87;;;10.90;;
239;SDS011;104;53.590;10.004;2022-10-16T04:51:36;15.17;;;10.93;;
239;SDS011;104;53.590;10.004;2022-10-16T04:54:05;20.10;;;10.87;;
239;SDS011;104;53.590;10.004;2022-10-16T04:56:32;14.43;;;9.73;;
239;SDS011;104;53.590;10.004;2022-10-16T04:59:05;14.80;;;9.73;;
239;SDS011;104;53.590;10.004;2022-10-16T05:01:32;14.00;;;10.00;;
239;SDS011;104;53.590;10.004;2022-10-16T05:04:00;19.40;;;10.17;;
239;SDS011;104;53.590;10.004;2022-10-16T05:06:27;14.77;;;9.87;;
239;SDS011;104;53.590;10.004;2022-10-16T05:08:54;16.37;;;9.73;;
239;SDS011;104;53.590;10.004;2022-10-16T05:11:23;12.27;;;9.23;;
239;SDS011;104;53.590;10.004;2022-10-16T05:13:50;16.73;;;10.63;;
239;SDS011;104;53.590;10.004;2022-10-16T05:16:18;17.13;;;9.83;;
239;SDS011;104;53.590;10.004;2022-10-16T05:18:45;18.13;;;10.70;;
239;SDS011;104;53.590;10.004;2022-10-16T05:21:12;19.53;;;9.90;;
239;SDS011;104;53.590;10.004;2022-10-16T05:23:40;12.93;;;9.33;;
239;SDS011;104;53.590;10.004;2022-10-16T05:26:07;16.87;;;9.60;;
239;SDS011;104;53.590;10.004;2022-10-16T05:28:36;11.67;;;9.80;;
239;SDS011;104;53.590;10.004;2022-10-16T05:31:04;16.00;;;10.40;;
239;SDS011;104;53.590;10.004;2022-10-16T05:33:32;23.63;;;10.33;;
239;SDS011;104;53.590;10.004;2022-10-16T05:36:00;17.73;;;11.07;;
239;SDS011;104;53.590;10.004;2022-10-16T05:38:28;17.37;;;10.23;;
239;SDS011;104;53.590;10.004;2022-10-16T05:40:55;18.67;;;10.57;;
239;SDS011;104;53.590;10.004;2022-10-16T05:43:23;17.40;;;10.27;;
239;SDS011;104;53.590;10.004;2022-10-16T05:45:55;14.67;;;10.37;;
239;SDS011;104;53.590;10.004;2022-10-16T05:48:23;12.27;;;10.03;;
239;SDS011;104;53.590;10.004;2022-10-16T05:50:56;15.03;;;10.20;;
239;SDS011;104;53.590;10.004;2022-10-16T05:53:23;14.10;;;10.00;;
239;SDS011;104;53.590;10.004;2022-10-16T05:55:52;12.13;;;9.87;;
239;SDS011;104;53.590;10.004;2022-10-16T05:58:20;13.60;;;10.10;;
239;SDS011;104;53.590;10.004;2022-10-16T06:00:52;13.70;;;10.40;;
239;SDS011;104;53.590;10.004;2022-10-16T06:03:21;15.37;;;12.23;;
239;SDS011;104;53.590;10.004;2022-10-16T06:05:49;19.03;;;13.30;;
239;SDS011;104;53.590;10.004;2022-10-16T06:08:16;19.13;;;10.60;;
239;SDS011;104;53.590;10.004;2022-10-16T06:10:44;21.20;;;11.10;;
239;SDS011;104;53.590;10.004;2022-10-16T06:13:11;14.17;;;11.23;;
239;SDS011;104;53.590;10.004;2022-10-16T06:15:39;17.33;;;11.17;;
239;SDS011;104;53.590;10.004;2022-10-16T06:18:07;14.80;;;10.77;;
239;SDS011;104;53.590;10.004;2022-10-16T06:20:40;17.03;;;10.90;;
239;SDS011;104;53.590;10.004;2022-10-16T06:23:08;15.70;;;10.87;;
239;SDS011;104;53.590;10.004;2022-10-16T06:25:35;18.97;;;11.30;;
239;SDS011;104;53.590;10.004;2022-10-16T06:28:03;15.27;;;10.03;;
239;SDS011;104;53.590;10.004;2022-10-16T06:30:30;54.47;;;12.00;;
239;SDS011;104;53.590;10.004;2022-10-16T06:32:57;15.20;;;10.90;;
239;SDS011;104;53.590;10.004;2022-10-16T06:35:25;18.33;;;13.90;;
239;SDS011;104;53.590;10.004;2022-10-16T06:37:55;32.67;;;15.90;;
239;SDS011;104;53.590;10.004;2022-10-16T06:40:23;19.40;;;13.90;;
239;SDS011;104;53.590;10.004;2022-10-16T06:42:50;23.03;;;12.47;;
239;SDS011;104;53.590;10.004;2022-10-16T06:45:17;15.10;;;10.63;;
239;SDS011;104;53.590;10.004;2022-10-16T06:47:45;14.73;;;10.27;;
239;SDS011;104;53.590;10.004;2022-10-16T06:50:12;14.27;;;10.50;;
239;SDS011;104;53.590;10.004;2022-10-16T06:52:41;15.63;;;10.20;;
239;SDS011;104;53.590;10.004;2022-10-16T06:55:38;15.60;;;9.90;;
239;SDS011;104;53.590;10.004;2022-10-16T06:58:05;11.53;;;9.50;;
239;SDS011;104;53.590;10.004;2022-10-16T07:00:33;16.30;;;10.23;;
239;SDS011;104;53.590;10.004;2022-10-16T07:03:00;14.70;;;9.97;;
239;SDS011;104;53.590;10.004;2022-10-16T07:05:27;15.30;;;9.73;;
239;SDS011;104;53.590;10.004;2022-10-16T07:07:54;14.10;;;10.70;;
239;SDS011;104;53.590;10.004;2022-10-16T07:10:21;13.57;;;9.90;;
239;SDS011;104;53.590;10.004;2022-10-16T07:12:51;18.23;;;10.67;;
239;SDS011;104;53.590;10.004;2022-10-16T07:15:18;20.03;;;10.23;;
239;SDS011;104;53.590;10.004;2022-10-16T07:17:45;16.57;;;10.27;;
239;SDS011;104;53.590;10.004;2022-10-16T07:20:13;12.63;;;9.50;;
239;SDS011;104;53.590;10.004;2022-10-16T07:22:40;17.13;;;9.80;;
239;SDS011;104;53.590;10.004;2022-10-16T07:25:07;12.67;;;9.90;;
239;SDS011;104;53.590;10.004;2022-10-16T07:27:36;17.73;;;10.73;;
239;SDS011;104;53.590;10.004;2022-10-16T07:30:05;12.87;;;10.37;;
239;SDS011;104;53.590;10.004;2022-10-16T07:32:33;14.80;;;9.77;;
239;SDS011;104;53.590;10.004;2022-10-16T07:35:00;11.17;;;8.73;;
239;SDS011;104;53.590;10.004;2022-10-16T07:37:27;12.17;;;9.50;;
239;SDS011;104;53.590;10.004;2022-10-16T07:39:54;16.50;;;11.40;;
239;SDS011;104;53.590;10.004;2022-10-16T07:42:21;17.87;;;10.70;;
239;SDS011;104;53.590;10.004;2022-10-16T07:44:48;9.80;;;8.30;;
239;SDS011;104;53.590;10.004;2022-10-16T07:47:16;12.63;;;8.97;;
239;SDS011;104;53.590;10.004;2022-10-16T07:49:43;11.03;;;8.50;;
239;SDS011;104;53.590;10.004;2022-10-16T07:52:10;11.50;;;8.40;;
239;SDS011;104;53.590;10.004;2022-10-16T07:54:38;16.23;;;8.40;;
239;SDS011;104;53.590;10.004;2022-10-16T07:57:04;10.10;;;8.20;;
239;SDS011;104;53.590;10.004;2022-10-16T07:59:31;10.23;;;8.00;;
239;SDS011;104;53.590;10.004;2022-10-16T08:01:59;20.90;;;9.00;;
239;SDS011;104;53.590;10.004;2022-10-16T08:04:27;9.07;;;7.80;;
239;SDS011;104;53.590;10.004;2022-10-16T08:06:54;9.10;;;7.33;;
239;SDS011;104;53.590;10.004;2022-10-16T08:09:22;8.80;;;6.87;;
239;SDS011;104;53.590;10.004;2022-10-16T08:11:49;11.83;;;8.03;;
239;SDS011;104;53.590;10.004;2022-10-16T08:14:17;7.60;;;6.37;;
239;SDS011;104;53.590;10.004;2022-10-16T08:16:44;12.70;;;7.40;;
239;SDS011;104;53.590;10.004;2022-10-16T08:19:11;8.43;;;7.20;;
239;SDS011;104;53.590;10.004;2022-10-16T08:21:42;10.00;;;6.53;;
239;SDS011;104;53.590;10.004;2022-10-16T08:24:09;6.87;;;6.27;;
239;SDS011;104;53.590;10.004;2022-10-16T08:26:36;7.80;;;6.70;;
239;SDS011;104;53.590;10.004;2022-10-16T08:29:03;7.40;;;6.30;;
239;SDS011;104;53.590;10.004;2022-10-16T08:31:30;11.07;;;7.03;;
239;SDS011;104;53.590;10.004;2022-10-16T08:33:57;6.07;;;5.50;;
239;SDS011;104;53.590;10.004;2022-10-16T08:36:24;11.10;;;5.80;;
239;SDS011;104;53.590;10.004;2022-10-16T08:38:53;7.73;;;5.50;;
239;SDS011;104;53.590;10.004;2022-10-16T08:41:22;11.87;;;8.97;;
239;SDS011;104;53.590;10.004;2022-10-16T08:47:08;10.70;;;6.27;;
239;SDS011;104;53.590;10.004;2022-10-16T08:49:43;7.73;;;6.10;;
239;SDS011;104;53.590;10.004;2022-10-16T08:52:29;8.20;;;5.80;;
239;SDS011;104;53.590;10.004;2022-10-16T08:55:00;10.23;;;6.07;;
239;SDS011;104;53.590;10.004;2022-10-16T08:57:29;16.13;;;7.30;;
239;SDS011;104;53.590;10.004;2022-10-16T08:59:58;9.80;;;5.30;;
239;SDS011;104;53.590;10.004;2022-10-16T09:02:29;8.13;;;5.73;;
239;SDS011;104;53.590;10.004;2022-10-16T09:05:16;10.93;;;6.97;;
239;SDS011;104;53.590;10.004;2022-10-16T09:07:48;8.00;;;5.70;;
239;SDS011;104;53.590;10.004;2022-10-16T09:10:30;9.53;;;5.53;;
239;SDS011;104;53.590;10.004;2022-10-16T09:13:09;14.33;;;6.10;;
239;SDS011;104;53.590;10.004;2022-10-16T09:15:45;6.80;;;5.30;;
239;SDS011;104;53.590;10.004;2022-10-16T09:18:21;9.97;;;6.27;;
239;SDS011;104;53.590;10.004;2022-10-16T09:20:55;7.83;;;5.67;;
239;SDS011;104;53.590;10.004;2022-10-16T09:23:28;6.00;;;5.47;;
239;SDS011;104;53.590;10.004;2022-10-16T09:25:58;7.73;;;5.57;;
239;SDS011;104;53.590;10.004;2022-10-16T09:28:25;5.40;;;5.10;;
239;SDS011;104;53.590;10.004;2022-10-16T09:30:53;10.43;;;5.77;;
239;SDS011;104;53.590;10.004;2022-10-16T09:33:20;7.00;;;5.40;;
239;SDS011;104;53.590;10.004;2022-10-16T09:35:51;8.47;;;5.60;;
239;SDS011;104;53.590;10.004;2022-10-16T09:38:21;5.63;;;5.33;;
239;SDS011;104;53.590;10.004;2022-10-16T09:40:50;9.23;;;5.40;;
239;SDS011;104;53.590;10.004;2022-10-16T09:43:21;7.60;;;5.37;;
239;SDS011;104;53.590;10.004;2022-10-16T09:45:56;6.40;;;5.77;;
239;SDS011;104;53.590;10.004;2022-10-16T09:48:26;5.97;;;4.83;;
239;SDS011;104;53.590;10.004;2022-10-16T09:50:57;8.90;;;5.57;;
239;SDS011;104;53.590;10.004;2022-10-16T09:53:26;9.20;;;5.90;;
239;SDS011;104;53.590;10.004;2022-10-16T09:56:07;6.97;;;5.50;;
239;SDS011;104;53.590;10.004;2022-10-16T09:58:43;7.33;;;6.00;;
239;SDS011;104;53.590;10.004;2022-10-16T10:01:16;12.10;;;5.63;;
239;SDS011;104;53.590;10.004;2022-10-16T10:03:43;9.53;;;5.30;;
239;SDS011;104;53.590;10.004;2022-10-16T10:06:16;5.43;;;5.13;;
239;SDS011;104;53.590;10.004;2022-10-16T10:08:54;5.50;;;5.00;;
239;SDS011;104;53.590;10.004;2022-10-16T10:11:41;12.80;;;5.23;;
239;SDS011;104;53.590;10.004;2022-10-16T10:14:19;5.93;;;4.93;;
239;SDS011;104;53.590;10.004;2022-10-16T10:17:02;9.60;;;6.93;;
239;SDS011;104;53.590;10.004;2022-10-16T10:19:41;16.17;;;6.10;;
239;SDS011;104;53.590;10.004;2022-10-16T10:31:16;7.60;;;5.40;;
239;SDS011;104;53.590;10.004;2022-10-16T10:33:50;9.00;;;4.63;;
239;SDS011;104;53.590;10.004;2022-10-16T10:36:22;14.83;;;5.10;;
239;SDS011;104;53.590;10.004;2022-10-16T10:38:52;14.87;;;7.03;;
239;SDS011;104;53.590;10.004;2022-10-16T10:41:28;8.30;;;5.43;;
239;SDS011;104;53.590;10.004;2022-10-16T10:44:00;8.10;;;5.97;;
239;SDS011;104;53.590;10.004;2022-10-16T10:46:31;6.83;;;5.50;;
239;SDS011;104;53.590;10.004;2022-10-16T10:49:03;5.60;;;5.30;;
239;SDS011;104;53.590;10.004;2022-10-16T10:51:36;6.67;;;5.00;;
239;SDS011;104;53.590;10.004;2022-10-16T10:54:07;8.27;;;4.90;;
239;SDS011;104;53.590;10.004;2022-10-16T10:56:56;11.07;;;6.03;;
239;SDS011;104;53.590;10.004;2022-10-16T11:02:21;14.87;;;7.50;;
239;SDS011;104;53.590;10.004;2022-10-16T11:04:58;9.97;;;6.10;;
239;SDS011;104;53.590;10.004;2022-10-16T11:07:32;13.10;;;6.87;;
239;SDS011;104;53.590;10.004;2022-10-16T11:10:02;12.80;;;6.10;;
239;SDS011;104;53.590;10.004;2022-10-16T11:12:31;9.93;;;6.13;;
239;SDS011;104;53.590;10.004;2022-10-16T11:15:02;11.00;;;5.93;;
239;SDS011;104;53.590;10.004;2022-10-16T11:17:33;11.90;;;5.53;;
239;SDS011;104;53.590;10.004;2022-10-16T11:20:03;10.53;;;4.60;;
239;SDS011;104;53.590;10.004;2022-10-16T11:22:33;8.93;;;5.33;;
239;SDS011;104;53.590;10.004;2022-10-16T11:25:02;6.47;;;4.70;;
239;SDS011;104;53.590;10.004;2022-10-16T11:27:35;9.20;;;6.30;;
239;SDS011;104;53.590;10.004;2022-10-16T11:30:04;5.17;;;4.87;;
239;SDS011;104;53.590;10.004;2022-10-16T11:32:35;7.13;;;4.50;;
239;SDS011;104;53.590;10.004;2022-10-16T11:35:08;6.50;;;4.80;;
239;SDS011;104;53.590;10.004;2022-10-16T11:37:39;6.03;;;4.70;;
239;SDS011;104;53.590;10.004;2022-10-16T11:40:14;4.63;;;4.27;;
239;SDS011;104;53.590;10.004;2022-10-16T11:42:44;4.33;;;4.03;;
239;SDS011;104;53.590;10.004;2022-10-16T11:45:16;5.60;;;4.60;;
239;SDS011;104;53.590;10.004;2022-10-16T11:47:54;7.87;;;4.10;;
239;SDS011;104;53.590;10.004;2022-10-16T11:50:25;6.00;;;4.70;;
239;SDS011;104;53.590;10.004;2022-10-16T11:52:54;6.27;;;4.17;;
239;SDS011;104;53.590;10.004;2022-10-16T11:55:23;10.10;;;4.47;;
239;SDS011;104;53.590;10.004;2022-10-16T11:57:51;6.03;;;4.60;;
239;SDS011;104;53.590;10.004;2022-10-16T12:00:22;4.77;;;4.20;;
239;SDS011;104;53.590;10.004;2022-10-16T12:02:58;5.53;;;4.23;;
239;SDS011;104;53.590;10.004;2022-10-16T12:05:29;9.63;;;4.77;;
239;SDS011;104;53.590;10.004;2022-10-16T12:08:05;12.33;;;4.40;;
239;SDS011;104;53.590;10.004;2022-10-16T12:10:34;7.93;;;4.67;;
239;SDS011;104;53.590;10.004;2022-10-16T12:13:02;4.40;;;4.07;;
239;SDS011;104;53.590;10.004;2022-10-16T12:15:31;6.73;;;4.20;;
239;SDS011;104;53.590;10.004;2022-10-16T12:18:00;6.03;;;4.13;;
239;SDS011;104;53.590;10.004;2022-10-16T12:20:29;6.50;;;4.40;;
239;SDS011;104;53.590;10.004;2022-10-16T12:22:58;9.23;;;4.20;;
239;SDS011;104;53.590;10.004;2022-10-16T12:25:27;9.00;;;4.10;;
239;SDS011;104;53.590;10.004;2022-10-16T12:27:56;13.13;;;3.90;;
239;SDS011;104;53.590;10.004;2022-10-16T12:30:25;4.40;;;4.10;;
239;SDS011;104;53.590;10.004;2022-10-16T12:32:53;11.73;;;4.63;;
239;SDS011;104;53.590;10.004;2022-10-16T12:35:22;4.40;;;4.10;;
239;SDS011;104;53.590;10.004;2022-10-16T12:37:50;6.73;;;3.83;;
239;SDS011;104;53.590;10.004;2022-10-16T12:40:24;7.67;;;4.20;;
239;SDS011;104;53.590;10.004;2022-10-16T12:42:52;4.17;;;3.93;;
239;SDS011;104;53.590;10.004;2022-10-16T12:45:28;5.83;;;4.50;;
239;SDS011;104;53.590;10.004;2022-10-16T12:47:56;4.60;;;4.30;;
239;SDS011;104;53.590;10.004;2022-10-16T12:50:29;6.63;;;4.97;;
239;SDS011;104;53.590;10.004;2022-10-16T12:52:57;6.80;;;6.40;;
239;SDS011;104;53.590;10.004;2022-10-16T12:55:25;5.10;;;4.13;;
239;SDS011;104;53.590;10.004;2022-10-16T12:58:02;7.60;;;4.23;;
239;SDS011;104;53.590;10.004;2022-10-16T13:00:32;5.60;;;4.17;;
239;SDS011;104;53.590;10.004;2022-10-16T13:05:51;10.47;;;4.80;;
239;SDS011;104;53.590;10.004;2022-10-16T13:08:30;11.80;;;6.50;;
239;SDS011;104;53.590;10.004;2022-10-16T13:11:02;7.83;;;6.27;;
239;SDS011;104;53.590;10.004;2022-10-16T13:16:16;6.90;;;4.40;;
239;SDS011;104;53.590;10.004;2022-10-16T13:18:48;6.13;;;4.03;;
239;SDS011;104;53.590;10.004;2022-10-16T13:21:23;13.93;;;5.63;;
239;SDS011;104;53.590;10.004;2022-10-16T13:23:59;6.70;;;5.00;;
239;SDS011;104;53.590;10.004;2022-10-16T13:26:31;4.60;;;4.30;;
239;SDS011;104;53.590;10.004;2022-10-16T13:29:01;4.63;;;4.30;;
239;SDS011;104;53.590;10.004;2022-10-16T13:31:28;6.00;;;5.30;;
239;SDS011;104;53.590;10.004;2022-10-16T13:33:57;14.83;;;4.50;;
239;SDS011;104;53.590;10.004;2022-10-16T13:36:27;5.53;;;4.23;;
239;SDS011;104;53.590;10.004;2022-10-16T13:39:06;5.27;;;4.67;;
239;SDS011;104;53.590;10.004;2022-10-16T13:41:34;13.03;;;4.43;;
239;SDS011;104;53.590;10.004;2022-10-16T13:44:01;11.83;;;5.03;;
239;SDS011;104;53.590;10.004;2022-10-16T13:46:28;7.20;;;4.33;;
239;SDS011;104;53.590;10.004;2022-10-16T13:48:59;4.80;;;4.43;;
239;SDS011;104;53.590;10.004;2022-10-16T13:51:29;6.53;;;4.47;;
239;SDS011;104;53.590;10.004;2022-10-16T13:53:56;7.30;;;4.87;;
239;SDS011;104;53.590;10.004;2022-10-16T13:56:25;4.63;;;4.33;;
239;SDS011;104;53.590;10.004;2022-10-16T13:59:00;12.20;;;5.13;;
239;SDS011;104;53.590;10.004;2022-10-16T14:01:29;4.70;;;4.40;;
239;SDS011;104;53.590;10.004;2022-10-16T14:04:00;5.27;;;5.00;;
239;SDS011;104;53.590;10.004;2022-10-16T14:06:30;4.20;;;3.70;;
239;SDS011;104;53.590;10.004;2022-10-16T14:08:59;4.60;;;4.40;;
239;SDS011;104;53.590;10.004;2022-10-16T14:11:27;5.10;;;4.17;;
239;SDS011;104;53.590;10.004;2022-10-16T14:13:54;5.27;;;4.30;;
239;SDS011;104;53.590;10.004;2022-10-16T14:16:23;19.33;;;4.50;;
239;SDS011;104;53.590;10.004;2022-10-16T14:18:55;4.93;;;4.37;;
239;SDS011;104;53.590;10.004;2022-10-16T14:21:23;6.93;;;5.00;;
239;SDS011;104;53.590;10.004;2022-10-16T14:23:53;8.30;;;4.60;;
239;SDS011;104;53.590;10.004;2022-10-16T14:26:21;5.77;;;4.60;;
239;SDS011;104;53.590;10.004;2022-10-16T14:29:00;10.10;;;5.13;;
239;SDS011;104;53.590;10.004;2022-10-16T14:31:30;9.10;;;5.23;;
239;SDS011;104;53.590;10.004;2022-10-16T14:33:57;8.50;;;5.03;;
239;SDS011;104;53.590;10.004;2022-10-16T14:36:25;12.20;;;7.57;;
239;SDS011;104;53.590;10.004;2022-10-16T14:38:59;5.80;;;5.50;;
239;SDS011;104;53.590;10.004;2022-10-16T14:41:27;8.60;;;5.53;;
239;SDS011;104;53.590;10.004;2022-10-16T14:43:55;6.33;;;5.70;;
239;SDS011;104;53.590;10.004;2022-10-16T14:46:28;9.80;;;6.93;;
239;SDS011;104;53.590;10.004;2022-10-16T14:48:58;14.10;;;6.30;;
239;SDS011;104;53.590;10.004;2022-10-16T14:51:27;10.40;;;5.30;;
239;SDS011;104;53.590;10.004;2022-10-16T14:53:54;9.97;;;6.10;;
239;SDS011;104;53.590;10.004;2022-10-16T14:56:23;8.90;;;6.77;;
239;SDS011;104;53.590;10.004;2022-10-16T14:58:51;8.10;;;6.10;;
239;SDS011;104;53.590;10.004;2022-10-16T15:01:19;7.47;;;4.90;;
239;SDS011;104;53.590;10.004;2022-10-16T15:03:46;9.33;;;5.30;;
239;SDS011;104;53.590;10.004;2022-10-16T15:06:14;8.70;;;5.77;;
239;SDS011;104;53.590;10.004;2022-10-16T15:08:42;9.97;;;6.00;;
239;SDS011;104;53.590;10.004;2022-10-16T15:11:09;7.07;;;5.20;;
239;SDS011;104;53.590;10.004;2022-10-16T15:13:40;24.93;;;8.10;;
239;SDS011;104;53.590;10.004;2022-10-16T15:16:08;16.80;;;11.90;;
239;SDS011;104;53.590;10.004;2022-10-16T15:18:37;14.30;;;8.83;;
239;SDS011;104;53.590;10.004;2022-10-16T15:21:04;12.87;;;7.70;;
239;SDS011;104;53.590;10.004;2022-10-16T15:23:32;10.03;;;7.87;;
239;SDS011;104;53.590;10.004;2022-10-16T15:25:59;16.17;;;12.60;;
239;SDS011;104;53.590;10.004;2022-10-16T15:28:27;8.47;;;7.33;;
239;SDS011;104;53.590;10.004;2022-10-16T15:30:56;9.60;;;6.53;;
239;SDS011;104;53.590;10.004;2022-10-16T15:33:27;11.80;;;7.00;;
239;SDS011;104;53.590;10.004;2022-10-16T15:35:57;10.07;;;7.30;;
239;SDS011;104;53.590;10.004;2022-10-16T15:38:25;11.70;;;7.20;;
239;SDS011;104;53.590;10.004;2022-10-16T15:40:53;19.83;;;8.73;;
239;SDS011;104;53.590;10.004;2022-10-16T15:43:21;8.83;;;7.43;;
239;SDS011;104;53.590;10.004;2022-10-16T15:45:52;10.97;;;7.57;;
239;SDS011;104;53.590;10.004;2022-10-16T15:48:26;13.10;;;8.50;;
239;SDS011;104;53.590;10.004;2022-10-16T15:50:53;9.53;;;7.00;;